createdAt,value
2023-04-28T00:00:24.112Z,12.03
2023-04-28T00:02:52.364Z,10.47
2023-04-28T00:05:19.744Z,8.67
2023-04-28T00:07:47.066Z,9.10
2023-04-28T00:10:14.255Z,11.57
2023-04-28T00:12:41.416Z,11.57
2023-04-28T00:15:09.226Z,9.83
2023-04-28T00:17:36.508Z,9.87
2023-04-28T00:20:03.997Z,10.80
2023-04-28T00:22:31.377Z,10.50
2023-04-28T00:24:58.733Z,9.13
2023-04-28T00:27:25.937Z,12.93
2023-04-28T00:29:53.137Z,10.87
2023-04-28T00:32:20.922Z,11.80
2023-04-28T00:34:48.195Z,10.40
2023-04-28T00:37:15.782Z,8.40
2023-04-28T00:39:47.100Z,10.63
2023-04-28T00:42:15.088Z,10.83
2023-04-28T00:44:42.323Z,12.73
2023-04-28T00:47:10.338Z,9.50
2023-04-28T00:49:38.127Z,12.17
2023-04-28T00:52:07.114Z,13.80
2023-04-28T00:54:34.866Z,11.00
2023-04-28T00:57:05.966Z,12.93
2023-04-28T00:59:33.123Z,12.73
2023-04-28T01:02:01.687Z,11.10
2023-04-28T01:04:29.959Z,11.07
2023-04-28T01:06:57.748Z,12.87
2023-04-28T01:09:24.895Z,15.57
2023-04-28T01:11:52.057Z,14.77
2023-04-28T01:14:19.196Z,12.20
2023-04-28T01:16:46.950Z,15.43
2023-04-28T01:19:17.800Z,12.67
2023-04-28T01:21:44.975Z,15.37
2023-04-28T01:24:12.138Z,14.27
2023-04-28T01:26:39.371Z,13.20
2023-04-28T01:29:06.487Z,14.03
2023-04-28T01:31:33.662Z,11.87
2023-04-28T01:34:01.004Z,14.93
2023-04-28T01:36:28.639Z,15.07
2023-04-28T01:38:55.973Z,11.50
2023-04-28T01:41:23.088Z,17.80
2023-04-28T01:43:50.806Z,14.50
2023-04-28T01:46:18.141Z,13.33
2023-04-28T01:48:45.394Z,14.07
2023-04-28T01:51:12.549Z,12.77
2023-04-28T01:53:39.969Z,13.43
2023-04-28T01:56:44.571Z,16.20
2023-04-28T01:59:12.090Z,14.63
2023-04-28T02:01:39.346Z,14.50
2023-04-28T02:04:06.602Z,12.80
2023-04-28T02:06:33.775Z,12.33
2023-04-28T02:09:01.210Z,19.10
2023-04-28T02:11:28.391Z,13.00
2023-04-28T02:13:56.058Z,15.00
2023-04-28T02:16:23.230Z,15.57
2023-04-28T02:18:51.081Z,14.57
2023-04-28T02:21:18.425Z,14.97
2023-04-28T02:23:45.914Z,14.03
2023-04-28T02:26:13.046Z,14.20
2023-04-28T02:28:40.249Z,12.50
2023-04-28T02:31:08.881Z,14.10
2023-04-28T02:33:36.541Z,13.97
2023-04-28T02:36:04.346Z,14.03
2023-04-28T02:38:31.572Z,18.80
2023-04-28T02:41:00.154Z,15.03
2023-04-28T02:43:28.045Z,21.80
2023-04-28T02:45:55.720Z,20.40
2023-04-28T02:48:23.026Z,14.57
2023-04-28T02:50:53.449Z,13.90
2023-04-28T02:53:20.889Z,16.17
2023-04-28T02:55:49.496Z,15.80
2023-04-28T02:58:18.182Z,16.60
2023-04-28T03:00:45.784Z,15.73
2023-04-28T03:03:13.259Z,17.10
2023-04-28T03:05:40.774Z,15.63
2023-04-28T03:08:08.105Z,14.47
2023-04-28T03:10:35.208Z,14.47
2023-04-28T03:13:02.407Z,16.93
2023-04-28T03:15:29.607Z,13.80
2023-04-28T03:17:56.877Z,14.97
2023-04-28T03:20:24.066Z,17.00
2023-04-28T03:22:51.269Z,18.73
2023-04-28T03:25:20.772Z,15.60
2023-04-28T03:27:47.960Z,15.70
2023-04-28T03:30:15.323Z,14.57
2023-04-28T03:32:42.582Z,16.23
2023-04-28T03:35:10.026Z,20.10
2023-04-28T03:37:37.215Z,15.63
2023-04-28T03:40:04.560Z,15.57
2023-04-28T03:42:31.713Z,18.93
2023-04-28T03:44:58.910Z,18.83
2023-04-28T03:47:26.067Z,19.23
2023-04-28T03:49:53.289Z,17.93
2023-04-28T03:52:23.199Z,18.43
2023-04-28T03:54:53.287Z,15.83
2023-04-28T03:57:20.715Z,15.80
2023-04-28T03:59:49.297Z,18.50
2023-04-28T04:02:16.737Z,19.93
2023-04-28T04:04:44.134Z,17.87
2023-04-28T04:07:11.864Z,18.63
2023-04-28T04:09:39.026Z,22.63
2023-04-28T04:12:06.491Z,15.43
2023-04-28T04:14:33.800Z,15.27
2023-04-28T04:17:01.323Z,17.33
2023-04-28T04:19:28.543Z,15.77
2023-04-28T04:21:55.741Z,13.10
2023-04-28T04:24:22.930Z,16.87
2023-04-28T04:26:50.249Z,12.57
2023-04-28T04:29:17.458Z,13.37
2023-04-28T04:31:45.476Z,13.77
2023-04-28T04:34:12.754Z,12.33
2023-04-28T04:36:39.901Z,12.67
2023-04-28T04:39:07.285Z,12.00
2023-04-28T04:41:34.645Z,12.33
2023-04-28T04:44:01.789Z,13.17
2023-04-28T04:46:29.175Z,15.70
2023-04-28T04:48:56.829Z,13.47
2023-04-28T04:51:23.950Z,13.03
2023-04-28T04:53:51.232Z,15.83
2023-04-28T04:56:20.865Z,14.27
2023-04-28T04:58:50.031Z,13.40
2023-04-28T05:01:17.297Z,14.80
2023-04-28T05:03:44.751Z,16.90
2023-04-28T05:06:12.104Z,16.73
2023-04-28T05:08:39.592Z,15.90
2023-04-28T05:11:07.276Z,12.37
2023-04-28T05:13:34.466Z,12.30
2023-04-28T05:16:01.734Z,16.50
2023-04-28T05:18:28.980Z,14.13
2023-04-28T05:20:56.215Z,13.07
2023-04-28T05:23:23.884Z,14.63
2023-04-28T05:25:51.162Z,12.17
2023-04-28T05:28:20.119Z,13.13
2023-04-28T05:30:48.629Z,13.07
2023-04-28T05:33:15.897Z,21.50
2023-04-28T05:35:43.157Z,15.17
2023-04-28T05:38:10.513Z,13.10
2023-04-28T05:40:37.680Z,12.13
2023-04-28T05:43:04.940Z,13.17
2023-04-28T05:45:32.279Z,12.63
2023-04-28T05:47:59.546Z,13.30
2023-04-28T05:50:26.813Z,11.00
2023-04-28T05:52:54.548Z,13.63
2023-04-28T05:55:22.015Z,13.10
2023-04-28T05:57:53.412Z,12.83
2023-04-28T06:00:21.740Z,12.17
2023-04-28T06:02:48.994Z,12.23
2023-04-28T06:05:16.568Z,15.53
2023-04-28T06:07:43.972Z,11.73
2023-04-28T06:10:11.569Z,14.13
2023-04-28T06:12:39.410Z,17.13
2023-04-28T06:15:07.093Z,13.77
2023-04-28T06:17:34.670Z,13.57
2023-04-28T06:20:01.901Z,13.47
2023-04-28T06:22:29.080Z,15.00
2023-04-28T06:24:56.214Z,12.33
2023-04-28T06:27:23.382Z,13.37
2023-04-28T06:29:51.381Z,13.40
2023-04-28T06:32:18.672Z,13.10
2023-04-28T06:34:46.016Z,12.37
2023-04-28T06:37:13.200Z,12.37
2023-04-28T06:39:40.481Z,12.07
2023-04-28T06:42:07.611Z,13.10
2023-04-28T06:44:36.304Z,12.63
2023-04-28T06:47:04.060Z,11.87
2023-04-28T06:49:31.392Z,11.40
2023-04-28T06:51:58.600Z,14.43
2023-04-28T06:54:25.958Z,11.27
2023-04-28T06:56:53.101Z,15.23
2023-04-28T06:59:23.076Z,12.50
2023-04-28T07:01:52.801Z,12.80
2023-04-28T07:04:20.657Z,11.00
2023-04-28T07:06:50.678Z,12.07
2023-04-28T07:09:18.726Z,12.00
2023-04-28T07:11:46.196Z,10.27
2023-04-28T07:14:13.373Z,10.87
2023-04-28T07:16:40.586Z,17.70
2023-04-28T07:19:07.756Z,9.47
2023-04-28T07:21:34.921Z,10.43
2023-04-28T07:24:02.429Z,12.37
2023-04-28T07:26:29.593Z,9.00
2023-04-28T07:28:56.748Z,10.23
2023-04-28T07:31:24.027Z,7.87
2023-04-28T07:33:51.651Z,7.50
2023-04-28T07:36:18.813Z,8.13
2023-04-28T07:38:45.988Z,7.20
2023-04-28T07:41:13.671Z,8.33
2023-04-28T07:43:41.248Z,7.33
2023-04-28T07:46:08.862Z,9.50
2023-04-28T07:48:36.403Z,8.07
2023-04-28T07:51:03.627Z,7.43
2023-04-28T07:53:30.975Z,10.03
2023-04-28T07:55:58.127Z,9.23
2023-04-28T07:58:25.364Z,7.27
2023-04-28T08:00:52.535Z,9.03
2023-04-28T08:03:22.910Z,9.70
2023-04-28T08:05:53.294Z,10.73
2023-04-28T08:08:20.875Z,8.20
2023-04-28T08:10:50.507Z,8.43
2023-04-28T08:13:17.738Z,8.50
2023-04-28T08:15:45.018Z,9.93
2023-04-28T08:18:12.539Z,7.57
2023-04-28T08:20:39.724Z,7.47
2023-04-28T08:23:06.960Z,7.60
2023-04-28T08:25:34.203Z,10.30
2023-04-28T08:28:03.372Z,9.85
2023-04-28T08:30:30.620Z,11.37
2023-04-28T08:32:57.793Z,10.95
2023-04-28T08:35:25.023Z,7.88
2023-04-28T08:37:52.998Z,10.68
2023-04-28T08:40:24.208Z,8.77
2023-04-28T08:42:51.411Z,12.00
2023-04-28T08:45:18.603Z,9.75
2023-04-28T08:47:46.332Z,8.75
2023-04-28T08:50:14.163Z,9.35
2023-04-28T08:52:42.608Z,8.82
2023-04-28T08:55:10.942Z,9.55
2023-04-28T08:57:45.343Z,9.52
2023-04-28T09:00:13.080Z,9.25
2023-04-28T09:02:42.660Z,9.60
2023-04-28T09:05:11.184Z,9.48
2023-04-28T09:07:38.593Z,9.68
2023-04-28T09:10:20.898Z,8.38
2023-04-28T09:12:51.739Z,11.77
2023-04-28T09:15:28.215Z,14.55
2023-04-28T09:17:55.703Z,11.93
2023-04-28T09:20:24.387Z,10.00
2023-04-28T09:22:52.854Z,13.73
2023-04-28T09:25:22.338Z,13.05
2023-04-28T09:27:50.208Z,11.95
2023-04-28T09:30:17.627Z,10.00
2023-04-28T09:32:45.271Z,10.55
2023-04-28T09:35:12.470Z,12.45
2023-04-28T09:37:39.791Z,11.82
2023-04-28T09:40:08.817Z,14.65
2023-04-28T09:42:46.689Z,13.45
2023-04-28T09:45:14.560Z,11.30
2023-04-28T09:47:42.998Z,15.27
2023-04-28T09:50:14.725Z,14.57
2023-04-28T09:52:42.865Z,11.57
2023-04-28T09:55:10.273Z,11.02
2023-04-28T09:57:37.814Z,13.15
2023-04-28T10:00:06.771Z,12.07
2023-04-28T10:05:09.910Z,13.18
2023-04-28T10:07:37.756Z,19.98
2023-04-28T10:10:05.455Z,11.95
2023-04-28T10:12:33.383Z,14.82
2023-04-28T10:15:01.105Z,13.60
2023-04-28T10:17:29.708Z,16.85
2023-04-28T10:19:57.555Z,18.15
2023-04-28T10:22:43.586Z,12.60
2023-04-28T10:25:14.991Z,12.23
2023-04-28T10:27:46.311Z,11.95
2023-04-28T10:30:26.601Z,12.52
2023-04-28T10:33:14.066Z,13.20
2023-04-28T10:35:47.936Z,14.90
2023-04-28T10:38:21.499Z,20.23
2023-04-28T10:40:52.812Z,14.00
2023-04-28T10:43:26.475Z,14.55
2023-04-28T10:45:57.808Z,16.95
2023-04-28T10:48:34.690Z,13.05
2023-04-28T10:51:09.807Z,14.30
2023-04-28T10:53:47.446Z,15.23
2023-04-28T10:56:16.915Z,13.93
2023-04-28T10:58:46.437Z,14.48
2023-04-28T11:01:19.845Z,13.63
2023-04-28T11:03:47.516Z,16.67
2023-04-28T11:06:25.784Z,15.05
2023-04-28T11:08:55.469Z,17.25
2023-04-28T11:11:25.957Z,15.98
2023-04-28T11:13:54.557Z,17.38
2023-04-28T11:16:23.310Z,18.75
2023-04-28T11:19:06.170Z,17.02
2023-04-28T11:21:33.831Z,21.00
2023-04-28T11:24:01.408Z,18.95
2023-04-28T11:26:28.812Z,20.77
2023-04-28T11:28:57.024Z,19.98
2023-04-28T11:31:25.883Z,20.92
2023-04-28T11:34:05.245Z,20.80
2023-04-28T11:36:33.601Z,22.05
2023-04-28T11:39:00.864Z,20.08
2023-04-28T11:41:28.309Z,19.85
2023-04-28T11:43:55.666Z,20.02
2023-04-28T11:46:24.061Z,19.40
2023-04-28T11:49:01.520Z,20.17
2023-04-28T11:51:36.396Z,19.98
2023-04-28T11:54:03.939Z,22.23
2023-04-28T11:56:32.118Z,21.63
2023-04-28T11:59:04.399Z,22.83
2023-04-28T12:01:32.133Z,22.73
2023-04-28T12:03:59.612Z,23.77
2023-04-28T12:06:28.043Z,24.27
2023-04-28T12:08:55.360Z,21.83
2023-04-28T12:11:22.935Z,22.40
2023-04-28T12:14:04.058Z,21.98
2023-04-28T12:16:43.912Z,18.20
2023-04-28T12:19:11.750Z,18.65
2023-04-28T12:21:40.082Z,15.23
2023-04-28T12:24:16.652Z,14.35
2023-04-28T12:26:44.317Z,15.45
2023-04-28T12:29:31.552Z,16.67
2023-04-28T12:31:58.820Z,12.77
2023-04-28T12:34:26.222Z,12.27
2023-04-28T12:36:53.478Z,10.32
2023-04-28T12:39:23.044Z,10.25
2023-04-28T12:41:50.396Z,11.15
2023-04-28T12:44:17.625Z,9.52
2023-04-28T12:46:44.970Z,9.05
2023-04-28T12:49:13.186Z,7.97
2023-04-28T12:51:40.528Z,8.90
2023-04-28T12:54:08.081Z,9.18
2023-04-28T12:56:35.726Z,9.30
2023-04-28T12:59:04.176Z,9.52
2023-04-28T13:01:31.440Z,10.27
2023-04-28T13:03:58.672Z,9.15
2023-04-28T13:06:27.808Z,11.20
2023-04-28T13:08:55.152Z,10.35
2023-04-28T13:11:27.074Z,10.38
2023-04-28T13:13:54.532Z,9.05
2023-04-28T13:16:21.743Z,11.27
2023-04-28T13:18:49.641Z,8.70
2023-04-28T13:21:17.461Z,9.98
2023-04-28T13:23:44.710Z,9.55
2023-04-28T13:26:11.919Z,9.70
2023-04-28T13:28:39.081Z,11.90
2023-04-28T13:31:06.486Z,10.90
2023-04-28T13:33:33.865Z,9.82
2023-04-28T13:36:01.256Z,11.35
2023-04-28T13:38:28.402Z,9.90
2023-04-28T13:40:55.799Z,9.60
2023-04-28T13:43:23.219Z,9.70
2023-04-28T13:45:53.212Z,9.95
2023-04-28T13:48:23.820Z,9.32
2023-04-28T13:50:51.058Z,9.18
2023-04-28T13:53:18.434Z,9.60
2023-04-28T13:55:45.672Z,10.73
2023-04-28T13:58:12.862Z,8.98
2023-04-28T14:00:40.150Z,9.43
2023-04-28T14:03:07.794Z,9.45
2023-04-28T14:05:48.315Z,9.00
2023-04-28T14:08:18.804Z,7.55
2023-04-28T14:10:48.472Z,6.90
2023-04-28T14:13:15.825Z,10.40
2023-04-28T14:15:51.255Z,7.65
2023-04-28T14:18:24.714Z,8.93
2023-04-28T14:20:51.988Z,8.63
2023-04-28T14:23:19.301Z,7.38
2023-04-28T14:25:46.647Z,7.90
2023-04-28T14:28:13.826Z,6.88
2023-04-28T14:30:41.792Z,6.38
2023-04-28T14:33:09.003Z,6.20
2023-04-28T14:35:36.300Z,5.35
2023-04-28T14:38:04.354Z,5.32
2023-04-28T14:40:31.687Z,5.22
2023-04-28T14:42:58.953Z,5.28
2023-04-28T14:45:26.413Z,6.07
2023-04-28T14:47:53.978Z,6.10
2023-04-28T14:50:21.195Z,7.35
2023-04-28T14:52:48.566Z,4.57
2023-04-28T14:55:15.707Z,5.13
2023-04-28T14:57:43.000Z,3.83
2023-04-28T15:00:10.559Z,3.05
2023-04-28T15:02:37.937Z,3.65
2023-04-28T15:05:06.014Z,3.25
2023-04-28T15:07:33.336Z,4.38
2023-04-28T15:10:00.730Z,4.13
2023-04-28T15:12:30.531Z,4.38
2023-04-28T15:14:57.958Z,5.22
2023-04-28T15:17:25.473Z,5.65
2023-04-28T15:19:53.062Z,7.63
2023-04-28T15:22:20.496Z,8.05
2023-04-28T15:24:47.904Z,8.13
2023-04-28T15:27:15.390Z,8.88
2023-04-28T15:29:42.576Z,9.02
2023-04-28T15:32:09.748Z,15.65
2023-04-28T15:34:37.174Z,11.13
2023-04-28T15:37:07.891Z,8.50
2023-04-28T15:39:35.180Z,8.13
2023-04-28T15:42:05.044Z,7.53
2023-04-28T15:44:32.542Z,7.68
2023-04-28T15:46:59.803Z,10.55
2023-04-28T15:49:26.992Z,7.00
2023-04-28T15:51:54.189Z,7.18
2023-04-28T15:54:22.491Z,6.13
2023-04-28T15:56:49.720Z,5.63
2023-04-28T15:59:19.494Z,4.75
2023-04-28T16:01:47.134Z,4.60
2023-04-28T16:04:14.635Z,10.00
2023-04-28T16:06:41.922Z,9.18
2023-04-28T16:09:09.268Z,5.57
2023-04-28T16:11:38.559Z,4.10
2023-04-28T16:14:06.365Z,5.00
2023-04-28T16:16:34.212Z,5.38
2023-04-28T16:19:01.527Z,5.03
2023-04-28T16:21:28.668Z,4.63
2023-04-28T16:23:55.838Z,6.05
2023-04-28T16:26:24.061Z,5.38
2023-04-28T16:28:51.457Z,7.38
2023-04-28T16:31:18.667Z,7.30
2023-04-28T16:33:45.856Z,6.57
2023-04-28T16:36:12.977Z,7.05
2023-04-28T16:38:41.073Z,7.05
2023-04-28T16:41:08.312Z,7.32
2023-04-28T16:43:38.319Z,7.10
2023-04-28T16:46:05.908Z,8.32
2023-04-28T16:48:33.119Z,8.40
2023-04-28T16:51:00.438Z,7.22
2023-04-28T16:53:27.776Z,7.85
2023-04-28T16:55:54.985Z,8.27
2023-04-28T16:58:22.496Z,7.47
2023-04-28T17:00:49.790Z,8.73
2023-04-28T17:03:17.581Z,8.05
2023-04-28T17:05:45.072Z,9.10
2023-04-28T17:08:12.276Z,8.85
2023-04-28T17:10:39.648Z,9.82
2023-04-28T17:13:08.795Z,7.80
2023-04-28T17:15:37.691Z,8.07
2023-04-28T17:18:05.138Z,8.50
2023-04-28T17:20:32.468Z,9.98
2023-04-28T17:23:00.196Z,9.20
2023-04-28T17:25:27.566Z,9.63
2023-04-28T17:27:54.899Z,9.65
2023-04-28T17:30:22.336Z,9.68
2023-04-28T17:32:51.976Z,10.20
2023-04-28T17:35:19.811Z,9.60
2023-04-28T17:37:47.067Z,10.63
2023-04-28T17:40:14.376Z,11.20
2023-04-28T17:42:41.713Z,13.93
2023-04-28T17:45:09.434Z,9.90
2023-04-28T17:47:37.137Z,12.50
2023-04-28T17:50:04.755Z,10.45
2023-04-28T17:52:32.363Z,9.95
2023-04-28T17:54:59.506Z,9.93
2023-04-28T17:57:26.686Z,11.15
2023-04-28T17:59:54.365Z,11.98
2023-04-28T18:02:21.828Z,11.70
2023-04-28T18:04:50.828Z,11.85
2023-04-28T18:07:18.507Z,13.75
2023-04-28T18:09:46.217Z,12.82
2023-04-28T18:12:13.533Z,11.25
2023-04-28T18:14:44.315Z,9.23
2023-04-28T18:17:11.716Z,9.52
2023-04-28T18:19:38.865Z,8.13
2023-04-28T18:22:06.180Z,8.00
2023-04-28T18:24:33.487Z,8.88
2023-04-28T18:27:00.658Z,7.68
2023-04-28T18:29:27.795Z,7.20
2023-04-28T18:31:55.832Z,8.40
2023-04-28T18:34:23.356Z,7.57
2023-04-28T18:36:50.631Z,6.90
2023-04-28T18:39:20.541Z,7.65
2023-04-28T18:41:47.853Z,8.02
2023-04-28T18:44:15.080Z,13.30
2023-04-28T18:46:42.585Z,8.45
2023-04-28T18:49:10.280Z,8.82
2023-04-28T18:51:38.654Z,8.45
2023-04-28T18:54:05.883Z,8.30
2023-04-28T18:56:33.448Z,9.13
2023-04-28T18:59:00.731Z,9.60
2023-04-28T19:01:27.921Z,10.38
2023-04-28T19:03:55.491Z,11.80
2023-04-28T19:06:23.009Z,13.80
2023-04-28T19:08:50.224Z,12.07
2023-04-28T19:11:17.530Z,13.65
2023-04-28T19:13:44.868Z,15.05
2023-04-28T19:16:12.192Z,18.40
2023-04-28T19:18:39.742Z,16.70
2023-04-28T19:21:06.959Z,13.63
2023-04-28T19:23:34.674Z,13.77
2023-04-28T19:26:02.136Z,14.23
2023-04-28T19:28:29.868Z,20.52
2023-04-28T19:30:57.964Z,16.60
2023-04-28T19:33:28.176Z,19.10
2023-04-28T19:35:56.078Z,14.48
2023-04-28T19:38:23.684Z,11.82
2023-04-28T19:40:52.132Z,12.35
2023-04-28T19:43:19.647Z,10.55
2023-04-28T19:45:47.123Z,16.58
2023-04-28T19:48:14.615Z,13.48
2023-04-28T19:50:42.432Z,12.57
2023-04-28T19:53:09.740Z,12.63
2023-04-28T19:55:37.095Z,13.50
2023-04-28T19:58:06.133Z,12.98
2023-04-28T20:00:33.503Z,12.65
2023-04-28T20:03:00.980Z,18.03
2023-04-28T20:05:28.946Z,21.57
2023-04-28T20:07:56.610Z,21.02
2023-04-28T20:10:24.192Z,16.58
2023-04-28T20:12:51.391Z,25.10
2023-04-28T20:15:19.551Z,24.03
2023-04-28T20:17:46.834Z,24.67
2023-04-28T20:20:14.086Z,30.13
2023-04-28T20:22:41.395Z,29.23
2023-04-28T20:25:10.561Z,29.00
2023-04-28T20:27:37.938Z,19.13
2023-04-28T20:30:05.445Z,19.53
2023-04-28T20:32:32.758Z,19.73
2023-04-28T20:35:00.041Z,29.50
2023-04-28T20:37:27.311Z,19.33
2023-04-28T20:39:54.480Z,18.67
2023-04-28T20:42:22.132Z,19.23
2023-04-28T20:44:52.638Z,19.33
2023-04-28T20:47:22.735Z,21.83
2023-04-28T20:49:50.339Z,19.23
2023-04-28T20:52:19.995Z,17.40
2023-04-28T20:54:47.844Z,20.93
2023-04-28T20:57:15.458Z,17.77
2023-04-28T20:59:42.641Z,17.97
2023-04-28T21:02:09.952Z,18.43
2023-04-28T21:04:37.511Z,22.70
2023-04-28T21:07:04.767Z,26.60
2023-04-28T21:09:32.028Z,20.70
2023-04-28T21:11:59.226Z,19.30
2023-04-28T21:14:26.869Z,23.07
2023-04-28T21:16:55.142Z,23.20
2023-04-28T21:19:22.463Z,18.47
2023-04-28T21:21:49.672Z,24.27
2023-04-28T21:24:16.832Z,21.63
2023-04-28T21:26:44.284Z,25.83
2023-04-28T21:29:11.502Z,22.57
2023-04-28T21:31:38.728Z,25.47
2023-04-28T21:34:06.558Z,25.80
2023-04-28T21:36:34.431Z,28.53
2023-04-28T21:39:03.909Z,28.03
2023-04-28T21:41:31.694Z,24.67
2023-04-28T21:43:59.621Z,27.90
2023-04-28T21:46:27.747Z,19.37
2023-04-28T21:48:55.292Z,20.90
2023-04-28T21:51:22.449Z,21.93
2023-04-28T21:53:49.835Z,24.27
2023-04-28T21:56:17.325Z,23.07
2023-04-28T21:58:45.076Z,20.03
2023-04-28T22:01:15.467Z,20.30
2023-04-28T22:03:42.872Z,20.80
2023-04-28T22:06:10.415Z,18.93
2023-04-28T22:08:37.810Z,19.70
2023-04-28T22:11:06.691Z,19.73
2023-04-28T22:13:33.829Z,22.40
2023-04-28T22:16:01.988Z,18.90
2023-04-28T22:18:29.875Z,21.37
2023-04-28T22:20:57.097Z,27.87
2023-04-28T22:23:24.473Z,26.33
2023-04-28T22:25:51.633Z,24.30
2023-04-28T22:28:18.911Z,26.50
2023-04-28T22:30:47.543Z,28.63
2023-04-28T22:33:14.785Z,21.33
2023-04-28T22:35:41.934Z,29.27
2023-04-28T22:38:09.083Z,30.90
2023-04-28T22:40:36.254Z,28.77
2023-04-28T22:43:03.757Z,27.67
2023-04-28T22:45:30.879Z,26.63
2023-04-28T22:47:58.133Z,33.80
2023-04-28T22:50:25.318Z,30.70
2023-04-28T22:52:52.805Z,34.60
2023-04-28T22:55:20.247Z,36.70
2023-04-28T22:57:47.904Z,32.13
2023-04-28T23:00:18.342Z,41.90
2023-04-28T23:02:45.729Z,40.90
2023-04-28T23:05:13.175Z,45.00
2023-04-28T23:07:40.427Z,43.17
2023-04-28T23:10:08.350Z,43.40
2023-04-28T23:12:35.579Z,46.50
2023-04-28T23:15:02.804Z,46.87
2023-04-28T23:17:30.258Z,52.03
2023-04-28T23:19:57.415Z,45.67
2023-04-28T23:22:24.578Z,45.33
2023-04-28T23:24:51.836Z,47.50
2023-04-28T23:27:20.033Z,45.10
2023-04-28T23:29:47.198Z,51.17
2023-04-28T23:32:14.326Z,47.93
2023-04-28T23:34:42.683Z,47.93
2023-04-28T23:37:10.389Z,60.30
2023-04-28T23:39:37.496Z,54.60
2023-04-28T23:42:04.757Z,60.07
2023-04-28T23:44:31.912Z,51.03
2023-04-28T23:46:59.033Z,43.97
2023-04-28T23:49:26.309Z,51.50
2023-04-28T23:51:53.480Z,48.47
2023-04-28T23:54:20.674Z,50.73
2023-04-28T23:56:48.031Z,46.30
2023-04-28T23:59:15.272Z,46.23
